Time;durP1;ratioP1;P1;durP2;ratioP2;P2;SDS_P1;SDS_P2;PMS_P1;PMS_P2;Temp;Humidity;BMP_temperature;BMP_pressure;BME280_temperature;BME280_humidity;BME280_pressure;Samples;Min_cycle;Max_cycle;Signal;HPM_P1;HPM_P2
2021/10/21 00:01:40;;;;;;;4.10;1.77;;;;;;;18.73;65.43;98832.75;4866632;29;20028;-83
2021/10/21 00:04:06;;;;;;;5.20;1.50;;;;;;;18.71;65.36;98819.81;4897346;29;20489;-83
2021/10/21 00:06:31;;;;;;;5.72;1.70;;;;;;;18.71;65.29;98796.38;4865918;29;20067;-82
2021/10/21 00:08:58;;;;;;;3.50;1.35;;;;;;;18.70;65.19;98785.09;4897144;29;20467;-84
2021/10/21 00:11:23;;;;;;;3.78;1.40;;;;;;;18.71;65.34;98788.53;4881357;29;20060;-83
2021/10/21 00:13:49;;;;;;;2.78;1.30;;;;;;;18.70;65.17;98773.81;4881481;29;20132;-84
2021/10/21 00:16:14;;;;;;;4.00;1.70;;;;;;;18.68;65.55;98760.88;4866202;29;20028;-82
2021/10/21 00:18:40;;;;;;;3.92;1.65;;;;;;;18.70;65.33;98745.16;4866124;29;20041;-83
2021/10/21 00:21:05;;;;;;;3.40;1.40;;;;;;;18.69;65.52;98739.09;4881222;29;20036;-81
2021/10/21 00:23:31;;;;;;;3.05;1.40;;;;;;;18.68;65.46;98724.41;4865925;29;20081;-80
2021/10/21 00:25:56;;;;;;;3.17;1.50;;;;;;;18.69;65.46;98754.75;4865724;29;20512;-83
2021/10/21 00:28:22;;;;;;;2.95;1.50;;;;;;;18.69;65.42;98726.09;4881475;29;20052;-82
2021/10/21 00:30:47;;;;;;;3.63;1.50;;;;;;;18.68;65.12;98698.34;4881254;29;20466;-82
2021/10/21 00:33:12;;;;;;;2.25;1.30;;;;;;;18.69;65.52;98663.56;4866165;29;20218;-82
2021/10/21 00:35:38;;;;;;;4.05;1.80;;;;;;;18.68;65.28;98606.31;4865901;29;20042;-81
2021/10/21 00:38:03;;;;;;;2.88;1.50;;;;;;;18.68;65.51;98616.72;4882664;29;20059;-82
2021/10/21 00:40:29;;;;;;;2.22;1.30;;;;;;;18.68;65.38;98615.00;4884829;29;20036;-81
2021/10/21 00:42:54;;;;;;;3.08;1.25;;;;;;;18.67;65.44;98589.84;4885185;29;20059;-84
2021/10/21 00:45:19;;;;;;;2.90;1.38;;;;;;;18.66;65.23;98567.31;4900597;29;20032;-83
2021/10/21 00:47:45;;;;;;;4.15;1.73;;;;;;;18.66;65.29;98559.50;4869222;29;20028;-84
2021/10/21 00:50:11;;;;;;;3.58;1.30;;;;;;;18.67;65.24;98555.13;4885194;29;20032;-85
2021/10/21 00:52:37;;;;;;;3.40;1.27;;;;;;;18.66;65.33;98556.91;4900520;29;20029;-81
2021/10/21 00:55:03;;;;;;;3.75;1.40;;;;;;;18.66;65.32;98572.53;4901543;29;20473;-84
2021/10/21 00:57:29;;;;;;;2.72;1.20;;;;;;;18.65;65.40;98576.03;4884322;29;20049;-81
2021/10/21 00:59:56;;;;;;;2.03;1.20;;;;;;;18.66;65.19;98575.16;4884632;29;20040;-80
2021/10/21 01:02:21;;;;;;;3.50;1.30;;;;;;;18.66;65.19;98571.66;4901306;29;20053;-82
2021/10/21 01:04:47;;;;;;;3.55;1.20;;;;;;;18.66;65.30;98582.97;4901156;29;20136;-83
2021/10/21 01:07:13;;;;;;;2.15;1.02;;;;;;;18.66;65.08;98579.47;4884221;29;20063;-84
2021/10/21 01:09:42;;;;;;;2.47;1.30;;;;;;;18.66;65.07;98569.06;4884478;29;20553;-84
2021/10/21 01:12:10;;;;;;;4.95;1.33;;;;;;;18.65;64.94;98562.19;4899776;29;20050;-83
2021/10/21 01:14:36;;;;;;;3.20;1.50;;;;;;;18.65;65.24;98554.38;4900017;29;20043;-81
2021/10/21 01:17:01;;;;;;;2.97;1.25;;;;;;;18.65;65.38;98551.75;4899876;29;20035;-82
2021/10/21 01:19:27;;;;;;;2.88;1.23;;;;;;;18.65;65.44;98538.75;4901036;29;20107;-82
2021/10/21 01:21:54;;;;;;;3.05;1.20;;;;;;;18.64;65.16;98535.31;4868707;29;20482;-82
2021/10/21 01:24:21;;;;;;;3.25;1.30;;;;;;;18.64;65.09;98526.63;4884579;29;20106;-81
2021/10/21 01:26:48;;;;;;;2.42;1.15;;;;;;;18.64;65.09;98530.09;4853351;29;20084;-80
2021/10/21 01:29:18;;;;;;;3.85;1.38;;;;;;;18.65;65.31;98528.31;4868495;29;20071;-80
2021/10/21 01:31:46;;;;;;;2.75;1.05;;;;;;;18.65;65.16;98538.75;4883934;29;20036;-82
2021/10/21 01:34:12;;;;;;;1.77;1.20;;;;;;;18.64;65.19;98537.03;4884122;29;20399;-81
2021/10/21 01:36:39;;;;;;;1.98;1.10;;;;;;;18.64;64.95;98535.31;4883857;29;20052;-82
2021/10/21 01:39:08;;;;;;;2.30;1.10;;;;;;;18.64;65.17;98521.41;4899442;29;20032;-83
2021/10/21 01:41:33;;;;;;;2.40;1.10;;;;;;;18.64;65.35;98524.88;4883832;29;20131;-81
2021/10/21 01:43:59;;;;;;;3.60;1.38;;;;;;;18.62;65.10;98525.88;4868369;29;20444;-82
2021/10/21 01:46:25;;;;;;;3.10;1.30;;;;;;;18.63;65.20;98536.19;4883743;29;20569;-82
2021/10/21 01:48:51;;;;;;;2.63;1.10;;;;;;;18.64;65.29;98555.28;4883704;29;20394;-80
2021/10/21 01:51:16;;;;;;;2.90;1.15;;;;;;;18.64;65.01;98578.72;4852007;29;20036;-82
2021/10/21 01:53:42;;;;;;;2.60;1.02;;;;;;;18.63;65.21;98585.69;4868182;29;20127;-82
2021/10/21 01:56:07;;;;;;;3.10;1.33;;;;;;;18.63;65.18;98603.94;4883859;29;20029;-81
2021/10/21 01:58:33;;;;;;;2.15;1.00;;;;;;;18.63;65.20;98603.94;4899038;29;20036;-81
2021/10/21 02:00:59;;;;;;;2.75;1.30;;;;;;;18.63;65.18;98597.88;4883597;29;20131;-80
2021/10/21 02:03:24;;;;;;;2.70;1.23;;;;;;;18.63;65.09;98611.75;4883696;29;20036;-80
2021/10/21 02:05:50;;;;;;;2.88;1.00;;;;;;;18.61;64.79;98605.75;4883261;29;20063;-81
2021/10/21 02:08:15;;;;;;;3.45;1.30;;;;;;;18.61;65.09;98599.72;4868046;29;20040;-82
2021/10/21 02:10:41;;;;;;;2.03;1.00;;;;;;;18.61;65.16;98595.34;4883509;29;20481;-79
2021/10/21 02:13:07;;;;;;;2.58;1.30;;;;;;;18.61;65.05;98597.94;4883542;29;20044;-81
2021/10/21 02:15:33;;;;;;;2.60;1.02;;;;;;;18.62;65.22;98604.03;4883486;29;20024;-83
2021/10/21 02:17:58;;;;;;;3.40;1.15;;;;;;;18.60;65.13;98604.09;4883311;29;20374;-84
2021/10/21 02:20:23;;;;;;;2.47;1.35;;;;;;;18.61;65.11;98602.31;4883185;29;20032;-79
2021/10/21 02:22:50;;;;;;;3.20;1.10;;;;;;;18.61;64.91;98602.31;4883335;29;20111;-80
2021/10/21 02:25:19;;;;;;;3.10;1.20;;;;;;;18.60;65.08;98601.50;4867908;29;20039;-80
2021/10/21 02:27:44;;;;;;;2.80;1.10;;;;;;;18.61;65.23;98595.34;4883201;29;20096;-83
2021/10/21 02:30:15;;;;;;;2.97;0.98;;;;;;;18.61;65.03;98597.13;4898603;29;20032;-83
2021/10/21 02:32:41;;;;;;;3.13;1.10;;;;;;;18.62;65.17;98617.88;4883052;29;20115;-82
2021/10/21 02:35:08;;;;;;;2.35;1.10;;;;;;;18.63;65.28;98608.31;4898476;29;20115;-83
2021/10/21 02:37:34;;;;;;;4.72;1.10;;;;;;;18.62;65.31;98607.47;4883013;29;20024;-83
2021/10/21 02:40:00;;;;;;;2.55;1.15;;;;;;;18.63;65.34;98610.91;4899556;29;20043;-83
2021/10/21 02:42:26;;;;;;;1.65;0.88;;;;;;;18.62;65.37;98604.88;4882687;29;20032;-83
2021/10/21 02:44:51;;;;;;;4.03;1.10;;;;;;;18.62;65.17;98612.69;4882920;29;20105;-83
2021/10/21 02:47:17;;;;;;;2.38;1.13;;;;;;;18.63;65.42;98609.13;4867069;29;20060;-84
2021/10/21 02:49:42;;;;;;;2.17;0.93;;;;;;;18.63;65.32;98609.13;4851622;29;20506;-80
2021/10/21 02:52:07;;;;;;;2.58;1.00;;;;;;;18.63;65.52;98610.91;4882533;29;20037;-83
2021/10/21 02:54:33;;;;;;;2.55;1.10;;;;;;;18.63;65.19;98611.75;4882468;29;20060;-82
2021/10/21 02:56:58;;;;;;;2.75;0.90;;;;;;;18.63;65.41;98608.31;4867355;29;20115;-82
2021/10/21 02:59:24;;;;;;;1.85;0.90;;;;;;;18.64;65.33;98615.19;4867175;29;20029;-82
2021/10/21 03:01:50;;;;;;;4.00;1.08;;;;;;;18.63;65.46;98598.72;4882362;29;20032;-82
2021/10/21 03:04:15;;;;;;;2.70;0.70;;;;;;;18.64;65.50;98583.94;4898017;29;20032;-82
2021/10/21 03:06:41;;;;;;;3.17;1.33;;;;;;;18.64;65.34;98603.03;4882341;29;20048;-82
2021/10/21 03:09:07;;;;;;;2.20;0.90;;;;;;;18.65;65.43;98602.09;4897963;29;20052;-81
2021/10/21 03:11:32;;;;;;;2.55;1.10;;;;;;;18.64;65.43;98604.78;4899208;29;20032;-82
2021/10/21 03:13:57;;;;;;;2.63;0.90;;;;;;;18.64;65.54;98603.03;4851507;29;20036;-82
2021/10/21 03:16:24;;;;;;;2.30;1.00;;;;;;;18.65;65.32;98603.88;4866801;29;20053;-84
2021/10/21 03:18:50;;;;;;;2.55;0.88;;;;;;;18.65;65.39;98603.88;4899045;29;20052;-82
2021/10/21 03:21:15;;;;;;;1.90;0.90;;;;;;;18.65;65.49;98607.31;4851268;29;20482;-81
2021/10/21 03:23:40;;;;;;;2.05;0.93;;;;;;;18.64;65.53;98609.97;4851220;29;20032;-81
2021/10/21 03:26:06;;;;;;;1.52;0.98;;;;;;;18.66;65.23;98615.97;4866569;29;20032;-81
2021/10/21 03:28:31;;;;;;;3.50;1.10;;;;;;;18.64;65.65;98615.19;4882047;29;20077;-81
2021/10/21 03:30:56;;;;;;;2.40;1.00;;;;;;;18.65;65.54;98616.88;4866524;29;20032;-82
2021/10/21 03:33:22;;;;;;;7.13;0.90;;;;;;;18.62;65.35;98607.47;4881958;29;20024;-81
2021/10/21 03:35:47;;;;;;;3.00;0.80;;;;;;;18.64;65.51;98610.84;4897557;29;20039;-84
2021/10/21 03:38:15;;;;;;;2.25;1.00;;;;;;;18.63;65.36;98609.13;4866260;29;20028;-80
2021/10/21 03:40:41;;;;;;;2.35;1.02;;;;;;;18.62;65.45;98610.06;4866652;29;20033;-81
2021/10/21 03:43:06;;;;;;;2.58;0.80;;;;;;;18.62;65.63;98604.03;4881671;29;20033;-80
2021/10/21 03:45:32;;;;;;;2.17;0.90;;;;;;;18.61;65.47;98608.38;4850873;29;20056;-82
2021/10/21 03:47:57;;;;;;;2.08;0.90;;;;;;;18.62;65.38;98609.25;4881619;29;20037;-82
2021/10/21 03:50:23;;;;;;;1.73;0.80;;;;;;;18.61;65.44;98604.94;4850810;29;20032;-81
2021/10/21 03:52:48;;;;;;;1.85;0.80;;;;;;;18.61;65.44;98581.47;4866319;29;20028;-81
2021/10/21 03:55:13;;;;;;;2.80;1.02;;;;;;;18.62;65.37;98607.47;4881529;29;20493;-81
2021/10/21 03:57:39;;;;;;;1.60;0.93;;;;;;;18.61;65.43;98604.94;4865964;29;20032;-80
2021/10/21 04:00:07;;;;;;;2.88;0.80;;;;;;;18.60;65.51;98609.31;4865946;29;20190;-80
2021/10/21 04:02:36;;;;;;;1.20;0.73;;;;;;;18.61;65.45;98615.34;4881787;29;20433;-82
2021/10/21 04:05:01;;;;;;;1.40;0.80;;;;;;;18.61;65.58;98615.34;4897030;29;20025;-82
2021/10/21 04:07:27;;;;;;;2.60;0.88;;;;;;;18.61;65.37;98610.13;4865875;29;20052;-82
2021/10/21 04:09:52;;;;;;;2.17;1.10;;;;;;;18.60;65.52;98600.66;4881917;29;20032;-79
2021/10/21 04:12:20;;;;;;;1.55;0.73;;;;;;;18.59;65.40;98648.44;4897891;29;20024;-83
2021/10/21 04:14:46;;;;;;;2.45;0.90;;;;;;;18.60;65.40;98700.47;4887725;29;20040;-81
2021/10/21 04:17:11;;;;;;;1.67;0.70;;;;;;;18.61;65.39;98729.97;4872351;29;20029;-82
2021/10/21 04:19:36;;;;;;;2.35;1.02;;;;;;;18.61;65.31;98761.22;4872270;29;20083;-82
2021/10/21 04:22:02;;;;;;;2.25;0.90;;;;;;;18.59;65.46;98776.91;4872067;29;20100;-79
2021/10/21 04:24:27;;;;;;;1.60;0.85;;;;;;;18.60;65.53;98803.84;4856627;29;20041;-80
2021/10/21 04:26:53;;;;;;;1.45;0.85;;;;;;;18.60;65.37;98833.31;4871923;29;20041;-81
2021/10/21 04:29:21;;;;;;;1.98;0.90;;;;;;;18.60;65.42;98858.53;4872000;29;20044;-82
2021/10/21 04:31:46;;;;;;;2.70;0.73;;;;;;;18.60;65.36;98871.56;4887314;29;20032;-80
2021/10/21 04:34:12;;;;;;;1.13;0.70;;;;;;;18.58;65.64;98882.03;4871949;29;20398;-79
2021/10/21 04:36:39;;;;;;;1.98;0.77;;;;;;;18.57;65.33;98901.19;4872223;29;20557;-82
2021/10/21 04:39:05;;;;;;;1.77;0.80;;;;;;;18.57;65.40;98926.38;4903114;29;20084;-80
2021/10/21 04:41:31;;;;;;;2.88;0.80;;;;;;;18.57;65.51;98937.66;4887633;29;20060;-79
2021/10/21 04:43:56;;;;;;;3.42;0.88;;;;;;;18.57;65.40;98952.44;4856635;29;20029;-79
2021/10/21 04:46:21;;;;;;;2.08;0.70;;;;;;;18.57;65.33;98962.84;4856430;29;20084;-79
2021/10/21 04:48:47;;;;;;;2.20;0.93;;;;;;;18.55;65.50;98978.53;4904470;29;20032;-82
2021/10/21 04:51:12;;;;;;;1.75;0.90;;;;;;;18.56;65.32;98995.03;4856458;29;20379;-81
2021/10/21 04:53:38;;;;;;;2.60;0.70;;;;;;;18.55;65.46;98996.78;4871887;29;20028;-83
2021/10/21 04:56:03;;;;;;;1.45;0.70;;;;;;;18.55;65.40;99020.22;4871741;29;20496;-82
2021/10/21 04:58:29;;;;;;;3.15;0.77;;;;;;;18.54;65.19;99017.69;4904168;29;20032;-83
2021/10/21 05:00:54;;;;;;;1.85;0.68;;;;;;;18.55;65.15;99048.03;4887246;29;20080;-79
2021/10/21 05:03:20;;;;;;;3.05;1.15;;;;;;;18.54;65.26;99057.63;4871567;29;20032;-78
2021/10/21 05:05:45;;;;;;;3.33;1.02;;;;;;;18.53;65.30;99076.78;4902699;29;20132;-88
2021/10/21 05:08:10;;;;;;;2.10;0.70;;;;;;;18.55;65.17;99093.16;4887799;29;20028;-89
2021/10/21 05:10:36;;;;;;;1.60;0.80;;;;;;;18.55;65.09;99106.19;4872087;29;20087;-89
2021/10/21 05:13:01;;;;;;;2.05;0.90;;;;;;;18.53;65.09;99122.78;4888290;29;20027;-89
2021/10/21 05:15:28;;;;;;;1.63;0.73;;;;;;;18.53;65.30;99138.41;4888077;29;20041;-89
2021/10/21 05:17:54;;;;;;;2.17;0.93;;;;;;;18.53;65.17;99143.63;4872487;29;20028;-84
2021/10/21 05:20:20;;;;;;;1.65;0.68;;;;;;;18.53;65.27;99154.91;4903416;29;20035;-86
2021/10/21 05:22:45;;;;;;;2.03;0.80;;;;;;;18.54;65.16;99147.94;4903167;29;20031;-88
2021/10/21 05:25:11;;;;;;;2.78;1.00;;;;;;;18.52;65.01;99168.84;4884547;29;20039;-82
2021/10/21 05:27:38;;;;;;;1.83;0.80;;;;;;;18.52;65.25;99176.66;4868795;29;20032;-82
2021/10/21 05:30:06;;;;;;;4.05;0.80;;;;;;;18.52;65.02;99178.41;4900012;29;20028;-86
2021/10/21 05:32:31;;;;;;;1.48;0.73;;;;;;;18.52;65.17;99191.44;4899944;29;20429;-83
2021/10/21 05:34:57;;;;;;;2.70;0.80;;;;;;;18.52;65.18;99201.88;4868942;29;20127;-84
2021/10/21 05:37:23;;;;;;;1.80;0.80;;;;;;;18.52;65.22;99207.06;4853358;29;20095;-86
2021/10/21 05:39:49;;;;;;;2.28;0.90;;;;;;;18.52;65.25;99214.88;4900040;29;20394;-84
2021/10/21 05:42:14;;;;;;;2.85;0.90;;;;;;;18.52;65.49;99223.53;4853379;29;20028;-84
2021/10/21 05:44:40;;;;;;;1.98;0.90;;;;;;;18.51;65.09;99245.31;4853618;29;20036;-87
2021/10/21 05:47:06;;;;;;;3.28;0.70;;;;;;;18.53;65.31;99258.25;4884301;29;20036;-88
2021/10/21 05:49:31;;;;;;;2.60;0.90;;;;;;;18.52;65.15;99266.97;4884703;29;20405;-87
2021/10/21 05:51:57;;;;;;;2.00;0.80;;;;;;;18.51;65.18;99268.75;4868465;29;20036;-84
2021/10/21 05:54:22;;;;;;;1.27;0.60;;;;;;;18.52;64.99;99283.44;4868566;29;20431;-82
2021/10/21 05:56:48;;;;;;;3.25;0.90;;;;;;;18.51;65.11;99292.19;4883809;29;20080;-83
2021/10/21 05:59:13;;;;;;;2.78;0.70;;;;;;;18.52;65.16;99306.06;4884005;29;20607;-81
2021/10/21 06:01:39;;;;;;;3.63;1.00;;;;;;;18.51;65.10;99323.44;4868112;29;20029;-84
2021/10/21 06:04:05;;;;;;;2.85;0.93;;;;;;;18.52;65.21;99334.72;4852905;29;20047;-83
2021/10/21 06:06:34;;;;;;;2.22;0.70;;;;;;;18.50;65.43;99334.75;4867897;29;20089;-84
2021/10/21 06:09:02;;;;;;;1.92;0.80;;;;;;;18.52;64.98;99350.34;4884461;29;20032;-84
2021/10/21 06:11:32;;;;;;;1.70;0.65;;;;;;;18.52;65.06;99364.22;4884107;29;20477;-84
2021/10/21 06:13:58;;;;;;;3.50;0.85;;;;;;;18.52;65.13;99382.44;4899091;29;20399;-80
2021/10/21 06:16:24;;;;;;;2.72;0.80;;;;;;;18.52;65.18;99392.03;4883388;29;20072;-84
2021/10/21 06:18:49;;;;;;;14.70;4.45;;;;;;;18.55;64.57;99413.59;4867861;29;20119;-77
2021/10/21 06:21:21;;;;;;;12.35;3.85;;;;;;;18.63;64.87;99421.97;4852505;29;20072;-80
2021/10/21 06:23:46;;;;;;;9.63;3.25;;;;;;;18.65;65.18;99424.53;4884007;29;20029;-81
2021/10/21 06:26:16;;;;;;;7.85;2.42;;;;;;;18.66;65.15;99432.31;4867655;29;20084;-83
2021/10/21 06:28:51;;;;;;;8.75;2.50;;;;;;;18.68;65.15;99440.91;4883766;29;20119;-83
2021/10/21 06:31:18;;;;;;;6.85;2.10;;;;;;;18.70;64.87;99446.06;4883010;29;20032;-82
2021/10/21 06:33:44;;;;;;;8.48;2.25;;;;;;;18.71;64.87;99452.97;4882926;29;20029;-81
2021/10/21 06:36:10;;;;;;;6.03;2.28;;;;;;;18.71;65.10;99479.88;4882632;29;20036;-81
2021/10/21 06:38:36;;;;;;;4.97;1.90;;;;;;;18.72;65.06;99465.09;4883192;29;20029;-80
2021/10/21 06:41:02;;;;;;;4.40;1.50;;;;;;;18.74;65.03;99473.72;4867570;29;20110;-81
2021/10/21 06:43:27;;;;;;;5.28;1.77;;;;;;;18.74;64.95;99488.50;4867291;29;20106;-81
2021/10/21 06:45:53;;;;;;;5.30;1.70;;;;;;;18.74;65.10;99491.94;4898388;29;20033;-81
2021/10/21 06:48:18;;;;;;;5.13;1.30;;;;;;;18.74;64.74;99496.31;4867232;29;20059;-82
2021/10/21 06:50:45;;;;;;;5.35;1.40;;;;;;;18.76;64.72;99510.16;4867565;29;20060;-79
2021/10/21 06:53:10;;;;;;;5.47;1.40;;;;;;;18.75;64.78;99516.25;4882716;29;20080;-81
2021/10/21 06:55:36;;;;;;;4.43;1.50;;;;;;;18.74;64.69;99528.44;4867240;29;20028;-82
2021/10/21 06:58:01;;;;;;;4.45;1.35;;;;;;;18.74;64.32;99524.97;4882195;29;20458;-83
2021/10/21 07:00:27;;;;;;;10.60;1.50;;;;;;;18.74;64.70;99533.66;4897987;29;20040;-83
2021/10/21 07:02:54;;;;;;;4.88;1.45;;;;;;;18.75;64.73;99552.72;4882646;29;20039;-82
2021/10/21 07:05:26;;;;;;;6.03;1.70;;;;;;;18.73;64.46;99563.22;4882408;29;20032;-83
2021/10/21 07:07:52;;;;;;;4.97;1.52;;;;;;;18.72;64.58;99584.97;4867428;29;20032;-82
2021/10/21 07:10:17;;;;;;;3.38;1.38;;;;;;;18.71;64.45;99623.22;4882294;29;20039;-84
2021/10/21 07:12:45;;;;;;;4.85;1.45;;;;;;;18.71;64.84;99622.38;4897836;29;20484;-82
2021/10/21 07:15:11;;;;;;;3.50;1.27;;;;;;;18.71;64.57;99623.22;4867420;29;20453;-82
2021/10/21 07:17:36;;;;;;;2.83;1.30;;;;;;;18.70;64.43;99616.31;4897748;29;20016;-83
2021/10/21 07:20:06;;;;;;;3.90;1.50;;;;;;;18.71;64.55;99645.81;4882211;29;20051;-83
2021/10/21 07:22:32;;;;;;;3.75;1.35;;;;;;;18.71;64.61;99657.09;4866646;29;20176;-83
2021/10/21 07:24:57;;;;;;;2.60;1.45;;;;;;;18.72;64.87;99668.34;4866556;29;20123;-83
2021/10/21 07:27:23;;;;;;;4.90;1.42;;;;;;;18.73;64.52;99674.41;4867132;29;20044;-82
2021/10/21 07:29:48;;;;;;;3.97;1.30;;;;;;;18.71;64.54;99683.16;4899059;29;20060;-82
2021/10/21 07:32:17;;;;;;;2.97;1.30;;;;;;;18.73;64.05;99695.25;4897738;29;20039;-82
2021/10/21 07:34:43;;;;;;;4.00;1.20;;;;;;;18.70;64.23;99701.44;4897542;29;20029;-80
2021/10/21 07:37:10;;;;;;;3.80;1.13;;;;;;;18.73;64.16;99697.88;4881985;29;20112;-83
2021/10/21 07:39:35;;;;;;;3.58;1.30;;;;;;;18.73;64.04;99706.56;4866485;29;20043;-81
2021/10/21 07:42:05;;;;;;;4.50;1.38;;;;;;;18.74;63.96;99713.47;4881913;29;20037;-81
2021/10/21 07:44:37;;;;;;;2.65;1.13;;;;;;;18.77;63.82;99736.84;4881929;29;20033;-83
2021/10/21 07:47:03;;;;;;;4.70;1.50;;;;;;;18.88;63.72;99737.38;4898043;29;20073;-81
2021/10/21 07:49:29;;;;;;;3.40;1.50;;;;;;;19.00;63.34;99741.31;4881376;29;20041;-80
2021/10/21 07:51:54;;;;;;;5.10;1.60;;;;;;;19.23;62.50;99758.81;4881604;29;20119;-83
2021/10/21 07:54:24;;;;;;;3.55;1.20;;;;;;;19.43;62.34;99773.81;4897183;29;20115;-82
2021/10/21 07:56:49;;;;;;;4.00;1.25;;;;;;;19.55;61.56;99766.44;4896904;29;20430;-82
2021/10/21 07:59:15;;;;;;;5.32;1.42;;;;;;;19.59;61.46;99778.50;4865992;29;20029;-83
2021/10/21 08:01:40;;;;;;;2.55;1.23;;;;;;;19.64;61.40;99789.63;4850629;29;20040;-80
2021/10/21 08:04:07;;;;;;;4.03;1.23;;;;;;;19.64;61.30;99794.84;4866086;29;20029;-79
2021/10/21 08:06:33;;;;;;;3.30;1.40;;;;;;;19.41;62.17;99798.25;4881386;29;20081;-79
2021/10/21 08:08:59;;;;;;;3.05;1.33;;;;;;;19.35;62.22;99801.91;4898189;29;20060;-81
2021/10/21 08:11:24;;;;;;;3.83;1.30;;;;;;;19.44;62.13;99812.03;4881353;29;20029;-81
2021/10/21 08:13:50;;;;;;;3.38;1.17;;;;;;;19.52;61.86;99814.38;4865962;29;20029;-80
2021/10/21 08:16:15;;;;;;;3.30;1.15;;;;;;;19.46;61.89;99825.88;4850606;29;20414;-83
2021/10/21 08:18:40;;;;;;;3.30;1.20;;;;;;;19.42;62.11;99820.81;4896914;29;20028;-82
2021/10/21 08:21:06;;;;;;;3.53;1.23;;;;;;;19.43;61.81;99841.63;4881259;29;20079;-82
2021/10/21 08:23:31;;;;;;;4.53;1.20;;;;;;;19.46;61.82;99832.84;4896912;29;20481;-83
2021/10/21 08:25:57;;;;;;;3.33;1.33;;;;;;;19.49;61.76;99831.00;4866046;29;20195;-83
2021/10/21 08:28:22;;;;;;;11.43;2.20;;;;;;;19.29;58.15;99844.72;4881115;29;20390;-80
2021/10/21 08:30:47;;;;;;;26.08;4.50;;;;;;;19.04;56.33;99846.38;4881186;29;20064;-82
2021/10/21 08:33:14;;;;;;;20.17;5.32;;;;;;;19.02;55.43;99841.19;4865872;29;20048;-81
2021/10/21 08:35:39;;;;;;;21.52;3.85;;;;;;;18.98;54.63;99850.03;4866215;29;20032;-84
2021/10/21 08:38:05;;;;;;;12.60;3.55;;;;;;;18.92;54.18;99858.03;4865929;29;20067;-81
2021/10/21 08:40:32;;;;;;;14.70;3.13;;;;;;;18.99;53.87;99871.72;4881093;29;20024;-80
2021/10/21 08:43:00;;;;;;;9.52;2.67;;;;;;;19.06;58.76;99879.31;4881626;29;20031;-87
2021/10/21 08:45:27;;;;;;;11.45;2.92;;;;;;;19.08;57.31;99874.91;4882101;29;20028;-89
2021/10/21 08:48:01;;;;;;;11.73;3.00;;;;;;;19.14;58.56;99870.41;4897535;29;20419;-89
2021/10/21 08:50:27;;;;;;;10.40;2.78;;;;;;;19.18;59.36;99887.66;4898902;29;20029;-87
2021/10/21 08:52:53;;;;;;;9.27;2.78;;;;;;;19.19;59.38;99885.03;4898413;29;20100;-89
2021/10/21 08:55:18;;;;;;;8.93;2.70;;;;;;;19.24;59.48;99908.34;4866433;29;20064;-87
2021/10/21 08:57:46;;;;;;;9.27;2.53;;;;;;;19.22;59.60;99902.31;4882168;29;20032;-88
2021/10/21 09:00:13;;;;;;;10.93;2.80;;;;;;;19.19;59.65;99918.94;4869373;29;20029;-89
2021/10/21 09:02:54;;;;;;;8.27;2.30;;;;;;;19.23;59.62;99924.91;4885286;29;20039;-88
2021/10/21 09:05:37;;;;;;;8.60;2.30;;;;;;;19.19;60.16;99913.72;4900938;29;20060;-88
2021/10/21 09:08:08;;;;;;;6.43;2.17;;;;;;;19.19;60.21;99933.72;4901686;29;20427;-87
2021/10/21 09:10:45;;;;;;;9.70;2.42;;;;;;;19.10;60.34;99940.06;4885132;29;20043;-88
2021/10/21 09:13:21;;;;;;;7.60;2.28;;;;;;;19.10;60.75;99948.75;4885063;29;20435;-88
2021/10/21 09:15:48;;;;;;;6.60;2.10;;;;;;;19.13;60.67;99957.38;4885020;29;20123;-89
2021/10/21 09:18:14;;;;;;;7.75;2.20;;;;;;;19.15;60.60;99951.22;4885259;29;20016;-88
2021/10/21 09:20:42;;;;;;;7.25;2.38;;;;;;;19.20;60.43;99944.09;4884920;29;20482;-87
2021/10/21 09:23:11;;;;;;;7.70;2.28;;;;;;;19.22;60.37;99954.47;4885533;29;20028;-88
2021/10/21 09:25:40;;;;;;;7.30;2.03;;;;;;;19.18;60.47;99969.34;4885235;29;20030;-87
2021/10/21 09:28:21;;;;;;;5.13;1.77;;;;;;;19.12;60.87;99980.00;4885123;29;20470;-89
2021/10/21 09:31:04;;;;;;;6.80;2.00;;;;;;;19.07;60.82;99982.72;4885038;29;20032;-88
2021/10/21 09:33:51;;;;;;;4.78;1.83;;;;;;;19.05;61.04;99979.31;4871332;29;20040;-87
2021/10/21 09:36:21;;;;;;;6.25;1.98;;;;;;;19.07;60.98;99993.16;4884838;29;20041;-88
2021/10/21 09:38:57;;;;;;;8.98;2.10;;;;;;;19.08;61.03;99997.47;4884958;29;20024;-88
2021/10/21 09:41:31;;;;;;;6.18;2.03;;;;;;;19.08;61.14;100001.84;4884667;29;20025;-88
2021/10/21 09:43:56;;;;;;;;;;;;;;;19.05;61.09;100018.44;4885547;29;20025;-88
2021/10/21 09:46:48;;;;;;;6.43;2.17;;;;;;;19.07;61.12;100036.63;4884542;29;19911;-89
2021/10/21 09:49:32;;;;;;;5.95;1.90;;;;;;;19.00;61.46;100048.13;4881302;29;20059;-89
2021/10/21 09:52:01;;;;;;;6.00;1.83;;;;;;;19.01;61.20;100040.28;4899916;29;20028;-90
2021/10/21 09:54:30;;;;;;;8.05;2.00;;;;;;;19.12;61.02;100055.63;4884371;29;20549;-90
2021/10/21 09:57:01;;;;;;;4.13;1.67;;;;;;;19.21;60.64;100065.78;4884289;29;20024;-89
2021/10/21 09:59:29;;;;;;;6.10;1.95;;;;;;;19.28;60.63;100066.47;4901659;29;20033;-88
2021/10/21 10:01:58;;;;;;;4.93;1.73;;;;;;;19.29;60.55;100068.16;4900491;29;20119;-91
2021/10/21 10:04:26;;;;;;;5.35;1.80;;;;;;;19.25;60.58;100076.97;4884701;29;20099;-89
2021/10/21 10:06:58;;;;;;;6.20;2.00;;;;;;;19.17;60.87;100086.78;4884190;29;20048;-88
2021/10/21 10:09:30;;;;;;;5.10;1.90;;;;;;;19.06;61.43;100121.84;4884525;29;20103;-87
2021/10/21 10:11:56;;;;;;;5.18;1.95;;;;;;;18.96;61.54;100128.19;4883582;29;20065;-88
2021/10/21 10:14:23;;;;;;;5.40;1.70;;;;;;;18.92;61.83;100139.59;4899830;29;20028;-90
2021/10/21 10:16:50;;;;;;;5.90;1.92;;;;;;;18.89;61.72;100161.38;4884709;29;20024;-89
2021/10/21 10:19:15;;;;;;;7.32;2.00;;;;;;;18.88;62.08;100167.50;4900814;29;20020;-90
2021/10/21 10:21:42;;;;;;;4.43;1.50;;;;;;;18.89;61.61;100184.84;4900242;29;20032;-88
2021/10/21 10:24:11;;;;;;;5.18;1.60;;;;;;;18.90;61.55;100186.56;4899785;29;20060;-90
2021/10/21 10:26:45;;;;;;;4.32;1.58;;;;;;;18.89;61.75;100197.03;4883755;29;20029;-85
2021/10/21 10:29:14;;;;;;;4.18;1.67;;;;;;;18.87;61.79;100204.88;4883984;29;20484;-89
2021/10/21 10:31:44;;;;;;;4.32;1.67;;;;;;;18.92;61.74;100207.38;4883937;29;20028;-88
2021/10/21 10:34:32;;;;;;;3.33;1.27;;;;;;;18.93;61.58;100216.06;4884067;29;20028;-87
2021/10/21 10:37:13;;;;;;;3.53;1.55;;;;;;;18.93;61.68;100219.53;4883776;29;20036;-87
2021/10/21 10:39:56;;;;;;;5.18;1.60;;;;;;;19.00;61.57;100221.09;4884358;29;20039;-88
2021/10/21 10:42:34;;;;;;;2.70;1.23;;;;;;;19.09;61.48;100230.41;4883784;29;20036;-86
2021/10/21 10:45:01;;;;;;;4.40;1.42;;;;;;;19.12;61.33;100238.19;4885671;29;20477;-91
2021/10/21 10:47:57;;;;;;;4.03;1.50;;;;;;;19.14;61.28;100251.16;4888182;29;20035;-90
2021/10/21 10:50:23;;;;;;;6.05;1.98;;;;;;;19.10;61.29;100256.47;4901319;29;20394;-91
2021/10/21 10:53:00;;;;;;;4.25;1.60;;;;;;;19.09;61.58;100259.97;4884328;29;20032;-90
2021/10/21 10:55:35;;;;;;;4.55;1.60;;;;;;;19.10;61.28;100268.66;4888451;29;20031;-91
2021/10/21 10:58:02;;;;;;;5.50;1.65;;;;;;;19.13;61.44;100278.16;4887290;29;20029;-90
2021/10/21 11:00:47;;;;;;;4.10;1.60;;;;;;;19.16;61.23;100288.50;4884779;29;20055;-91
2021/10/21 11:03:30;;;;;;;5.07;1.67;;;;;;;19.18;61.12;100292.78;4884318;29;20029;-92
2021/10/21 11:05:57;;;;;;;6.00;1.65;;;;;;;19.14;61.56;100288.56;4883706;29;20068;-91
2021/10/21 11:08:52;;;;;;;5.18;1.80;;;;;;;19.07;61.61;100280.00;4883731;29;20466;-93
2021/10/21 11:11:55;;;;;;;4.35;1.58;;;;;;;19.09;61.63;100275.59;4898889;29;20040;-91
2021/10/21 11:14:43;;;;;;;3.17;1.30;;;;;;;19.13;61.53;100289.44;4898980;29;20024;-91
2021/10/21 11:17:12;;;;;;;3.33;1.40;;;;;;;19.18;61.26;100305.81;4883327;29;20032;-91
2021/10/21 11:19:45;;;;;;;3.85;1.35;;;;;;;19.18;61.27;100302.38;4883797;29;20028;-90
2021/10/21 11:22:19;;;;;;;4.65;1.52;;;;;;;19.17;61.36;100292.84;4898615;29;20060;-91
2021/10/21 11:24:45;;;;;;;3.22;1.40;;;;;;;19.21;61.37;100307.53;4883270;29;20036;-90
2021/10/21 11:27:14;;;;;;;4.22;1.52;;;;;;;19.24;61.01;100312.66;4883797;29;20434;-90
2021/10/21 11:29:49;;;;;;;3.95;1.33;;;;;;;19.23;61.16;100316.16;4898446;29;20032;-91
2021/10/21 11:32:16;;;;;;;3.58;1.33;;;;;;;19.14;61.52;100317.25;4898456;29;20056;-85
2021/10/21 11:34:42;;;;;;;4.20;1.50;;;;;;;19.13;61.69;100322.50;4899270;29;20076;-86